Time;durP1;ratioP1;P1;durP2;ratioP2;P2;SDS_P1;SDS_P2;PMS_P1;PMS_P2;Temp;Humidity;BMP_temperature;BMP_pressure;BME280_temperature;BME280_humidity;BME280_pressure;Samples;Min_cycle;Max_cycle;Signal;HPM_P1;HPM_P2
2021/08/21 00:00:51;;;;;;;11.82;5.82;;;;;;;;;;5110297;28;20472;-68
2021/08/21 00:03:17;;;;;;;9.50;6.03;;;;;;;;;;5109928;28;20461;-67
2021/08/21 00:05:43;;;;;;;8.88;5.50;;;;;;;;;;5125547;28;20020;-70
2021/08/21 00:08:10;;;;;;;12.57;6.07;;;;;;;;;;5110121;28;20507;-68
2021/08/21 00:10:36;;;;;;;10.25;5.60;;;;;;;;;;5110072;28;20116;-69
2021/08/21 00:13:02;;;;;;;8.77;4.90;;;;;;;;;;5109679;28;20027;-68
2021/08/21 00:16:25;;;;;;;8.27;4.80;;;;;;;;;;5111454;27;20412;-69
2021/08/21 00:18:51;;;;;;;8.35;5.07;;;;;;;;;;5111219;28;20085;-70
2021/08/21 00:21:17;;;;;;;8.30;4.82;;;;;;;;;;5110768;28;20055;-70
2021/08/21 00:25:42;;;;;;;7.38;4.97;;;;;;;;;;5111361;27;20396;-69
2021/08/21 00:28:08;;;;;;;8.35;5.07;;;;;;;;;;5110971;28;20028;-71
2021/08/21 00:30:35;;;;;;;11.10;6.00;;;;;;;;;;5111158;28;20043;-70
2021/08/21 00:34:41;;;;;;;8.88;5.47;;;;;;;;;;5070398;28;20450;-70
2021/08/21 00:37:07;;;;;;;8.30;5.00;;;;;;;;;;5070879;28;20108;-68
2021/08/21 00:39:34;;;;;;;8.90;5.35;;;;;;;;;;5069335;28;20029;-68
2021/08/21 00:42:00;;;;;;;11.35;6.30;;;;;;;;;;5070258;28;20075;-68
2021/08/21 00:47:14;;;;;;;10.30;6.10;;;;;;;;;;5111384;27;20392;-67
2021/08/21 00:49:42;;;;;;;11.35;6.05;;;;;;;;;;5110879;28;20043;-69
2021/08/21 00:52:11;;;;;;;11.98;6.07;;;;;;;;;;5111153;28;20106;-69
2021/08/21 00:54:39;;;;;;;11.88;5.88;;;;;;;;;;5110894;28;20518;-70
2021/08/21 00:57:05;;;;;;;10.13;5.75;;;;;;;;;;5111203;28;20024;-67
2021/08/21 00:59:38;;;;;;;8.50;5.50;;;;;;;;;;5111167;28;20480;-69
2021/08/21 01:02:08;;;;;;;9.23;5.90;;;;;;;;;;5109411;28;20380;-69
2021/08/21 01:04:35;;;;;;;10.50;5.80;;;;;;;;;;5109660;28;20030;-70
2021/08/21 01:07:03;;;;;;;9.98;5.95;;;;;;;;;;5110904;28;20031;-69
2021/08/21 01:09:29;;;;;;;8.98;5.93;;;;;;;;;;5110399;28;20024;-69
2021/08/21 01:11:55;;;;;;;9.13;6.47;;;;;;;;;;5110944;28;20075;-70
2021/08/21 01:14:22;;;;;;;11.82;6.40;;;;;;;;;;5109388;28;20055;-68
2021/08/21 01:16:49;;;;;;;9.13;5.65;;;;;;;;;;5110447;28;20024;-68
2021/08/21 01:22:21;;;;;;;9.82;5.55;;;;;;;;;;5091112;27;20383;-69
2021/08/21 01:24:50;;;;;;;9.48;6.38;;;;;;;;;;5090575;28;20079;-67
2021/08/21 01:27:21;;;;;;;8.98;5.65;;;;;;;;;;5090849;28;20029;-67
2021/08/21 01:29:47;;;;;;;11.60;6.78;;;;;;;;;;5090472;28;20495;-67
2021/08/21 01:32:32;;;;;;;11.18;5.85;;;;;;;;;;5070937;28;20832;-68
2021/08/21 01:35:31;;;;;;;10.10;5.75;;;;;;;;;;5111716;27;20500;-67
2021/08/21 01:37:57;;;;;;;9.02;5.72;;;;;;;;;;5110899;28;20046;-69
2021/08/21 01:42:05;;;;;;;9.10;6.03;;;;;;;;;;5111577;27;20384;-67
2021/08/21 01:44:31;;;;;;;11.13;5.78;;;;;;;;;;5110712;28;20052;-67
2021/08/21 01:46:57;;;;;;;9.07;6.22;;;;;;;;;;5111255;28;20039;-66
2021/08/21 01:49:24;;;;;;;9.35;5.32;;;;;;;;;;5111208;28;20027;-68
2021/08/21 01:54:16;;;;;;;8.57;5.53;;;;;;;;;;5111363;27;20397;-69
2021/08/21 01:56:46;;;;;;;11.43;4.88;;;;;;;;;;5111324;28;20020;-67
2021/08/21 02:01:52;;;;;;;12.40;5.38;;;;;;;;;;5111514;27;20401;-67
2021/08/21 02:04:19;;;;;;;7.43;4.63;;;;;;;;;;5111187;28;20019;-67
2021/08/21 02:09:37;;;;;;;8.70;5.40;;;;;;;;;;5111539;27;20397;-68
2021/08/21 02:12:04;;;;;;;9.60;5.68;;;;;;;;;;5110799;28;20033;-67
2021/08/21 02:14:31;;;;;;;11.05;6.60;;;;;;;;;;5109927;28;20019;-68
2021/08/21 02:18:53;;;;;;;8.57;5.53;;;;;;;;;;5111310;27;20874;-70
2021/08/21 02:21:20;;;;;;;9.48;5.18;;;;;;;;;;5110064;28;20051;-67
2021/08/21 02:23:46;;;;;;;11.85;6.28;;;;;;;;;;5111184;28;20075;-67
2021/08/21 02:26:37;;;;;;;8.80;5.07;;;;;;;;;;5111019;27;20952;-69
2021/08/21 02:29:03;;;;;;;10.65;5.97;;;;;;;;;;5111389;28;20427;-67
2021/08/21 02:33:18;;;;;;;8.75;5.80;;;;;;;;;;5111157;27;20520;-67
2021/08/21 02:37:28;;;;;;;7.60;4.90;;;;;;;;;;5111178;27;20513;-69
2021/08/21 02:39:54;;;;;;;10.32;5.93;;;;;;;;;;5111311;28;20020;-68
2021/08/21 02:42:21;;;;;;;10.60;5.95;;;;;;;;;;5110938;28;20028;-68
2021/08/21 02:44:47;;;;;;;7.95;5.00;;;;;;;;;;5111241;28;20012;-68
2021/08/21 02:48:21;;;;;;;8.98;5.57;;;;;;;;;;5173060;27;20310;-67
2021/08/21 02:50:48;;;;;;;9.13;5.88;;;;;;;;;;5152496;27;20030;-67
2021/08/21 02:53:14;;;;;;;8.55;4.97;;;;;;;;;;5152290;27;20019;-67
2021/08/21 02:55:40;;;;;;;10.88;5.80;;;;;;;;;;5152060;27;20368;-68
2021/08/21 02:58:06;;;;;;;11.65;5.35;;;;;;;;;;5152467;27;20026;-69
2021/08/21 03:00:32;;;;;;;10.68;6.53;;;;;;;;;;5152289;27;20088;-68
2021/08/21 03:04:55;;;;;;;9.52;5.65;;;;;;;;;;5111237;27;20525;-70
2021/08/21 03:07:21;;;;;;;8.82;4.78;;;;;;;;;;5111241;28;20541;-69
2021/08/21 03:10:47;;;;;;;8.82;5.22;;;;;;;;;;5111568;27;20385;-69
2021/08/21 03:13:13;;;;;;;14.95;5.60;;;;;;;;;;5111250;28;20031;-69
2021/08/21 03:17:20;;;;;;;7.60;4.90;;;;;;;;;;5110954;27;20397;-69
2021/08/21 03:21:01;;;;;;;8.60;4.75;;;;;;;;;;5071277;28;20938;-67
2021/08/21 03:23:27;;;;;;;8.18;4.70;;;;;;;;;;5070356;28;20029;-67
2021/08/21 03:25:53;;;;;;;8.52;4.95;;;;;;;;;;5069306;28;20035;-67
2021/08/21 03:28:20;;;;;;;9.20;5.40;;;;;;;;;;5070557;28;20021;-68
2021/08/21 03:30:56;;;;;;;8.63;4.82;;;;;;;;;;5069987;28;20513;-69
2021/08/21 03:33:22;;;;;;;7.43;4.63;;;;;;;;;;5070257;28;20025;-68
2021/08/21 03:35:49;;;;;;;14.77;5.65;;;;;;;;;;5070553;28;20029;-68
2021/08/21 03:38:16;;;;;;;7.70;5.00;;;;;;;;;;5070360;28;20385;-68
2021/08/21 03:40:42;;;;;;;10.18;5.22;;;;;;;;;;5070579;28;20047;-68
2021/08/21 03:43:08;;;;;;;8.55;4.40;;;;;;;;;;5070582;28;20025;-68
2021/08/21 03:45:36;;;;;;;8.00;4.65;;;;;;;;;;5070064;28;20100;-68
2021/08/21 03:48:02;;;;;;;9.70;5.10;;;;;;;;;;5070335;28;20021;-68
2021/08/21 03:50:29;;;;;;;7.60;4.97;;;;;;;;;;5069881;28;20032;-68
2021/08/21 03:52:55;;;;;;;10.55;6.63;;;;;;;;;;5070439;28;20487;-68
2021/08/21 03:57:09;;;;;;;10.52;5.75;;;;;;;;;;5070994;28;20399;-68
2021/08/21 03:59:35;;;;;;;10.65;5.25;;;;;;;;;;5070299;28;20071;-68
2021/08/21 04:03:36;;;;;;;9.82;5.30;;;;;;;;;;5111213;27;20458;-68
2021/08/21 04:06:42;;;;;;;9.43;5.38;;;;;;;;;;5131691;27;20313;-69
2021/08/21 04:09:33;;;;;;;8.43;4.60;;;;;;;;;;5111304;27;20404;-70
2021/08/21 04:12:00;;;;;;;6.53;3.90;;;;;;;;;;5110968;28;20102;-69
2021/08/21 04:14:26;;;;;;;7.55;4.35;;;;;;;;;;5111227;28;20019;-69
2021/08/21 04:17:16;;;;;;;8.82;4.85;;;;;;;;;;5111416;27;20446;-71
2021/08/21 04:22:15;;;;;;;8.05;5.10;;;;;;;;;;5111398;27;20400;-71
2021/08/21 04:25:07;;;;;;;9.07;5.30;;;;;;;;;;5111911;27;20462;-69
2021/08/21 04:27:33;;;;;;;10.30;5.43;;;;;;;;;;5110914;28;20054;-69
2021/08/21 04:30:41;;;;;;;8.45;4.50;;;;;;;;;;5111281;27;20501;-69
2021/08/21 04:33:07;;;;;;;6.80;4.38;;;;;;;;;;5110918;28;20035;-71
2021/08/21 04:35:34;;;;;;;14.63;5.80;;;;;;;;;;5110882;28;20533;-72
2021/08/21 04:41:05;;;;;;;8.05;5.10;;;;;;;;;;5111122;27;20401;-69
2021/08/21 04:43:31;;;;;;;8.98;5.00;;;;;;;;;;5111183;28;20031;-71
2021/08/21 04:45:58;;;;;;;10.20;4.80;;;;;;;;;;5111222;28;20077;-70
2021/08/21 04:49:19;;;;;;;9.13;5.60;;;;;;;;;;5091021;27;20409;-71
2021/08/21 04:53:16;;;;;;;9.93;5.22;;;;;;;;;;5099367;27;1599842;-70
2021/08/21 04:57:30;;;;;;;6.50;4.10;;;;;;;;;;5111389;27;20392;-73
2021/08/21 04:59:57;;;;;;;7.70;4.45;;;;;;;;;;5111239;28;20426;-70
2021/08/21 05:02:23;;;;;;;9.77;4.60;;;;;;;;;;5109464;28;20020;-71
2021/08/21 05:06:01;;;;;;;10.70;5.00;;;;;;;;;;5111382;27;20892;-72
2021/08/21 05:08:27;;;;;;;6.97;4.13;;;;;;;;;;5111045;28;20380;-69
2021/08/21 05:12:39;;;;;;;5.80;3.70;;;;;;;;;;5111386;27;20389;-68
2021/08/21 05:15:06;;;;;;;10.73;5.15;;;;;;;;;;5126677;28;20028;-68
2021/08/21 05:17:33;;;;;;;8.20;4.47;;;;;;;;;;5126982;28;20031;-68
2021/08/21 05:20:09;;;;;;;9.07;4.20;;;;;;;;;;5111225;28;20048;-68
2021/08/21 05:25:10;;;;;;;7.32;3.83;;;;;;;;;;5111121;28;20028;-68
2021/08/21 05:27:37;;;;;;;15.20;5.00;;;;;;;;;;5111284;28;20028;-68
2021/08/21 05:30:04;;;;;;;9.57;4.45;;;;;;;;;;5110565;28;20353;-68
2021/08/21 05:35:37;;;;;;;7.50;4.18;;;;;;;;;;5152670;27;20455;-69
2021/08/21 05:42:16;;;;;;;7.90;4.78;;;;;;;;;;5111464;27;20912;-68
2021/08/21 05:44:42;;;;;;;8.55;4.35;;;;;;;;;;5110989;28;20020;-68
2021/08/21 05:47:08;;;;;;;9.75;5.32;;;;;;;;;;5111147;28;20024;-68
2021/08/21 05:51:34;;;;;;;7.93;4.80;;;;;;;;;;5111202;27;20525;-68
2021/08/21 05:54:00;;;;;;;8.82;5.47;;;;;;;;;;5111340;28;20027;-68
2021/08/21 05:56:26;;;;;;;8.50;5.43;;;;;;;;;;5109885;28;20019;-71
2021/08/21 05:58:52;;;;;;;10.32;6.32;;;;;;;;;;5110849;28;20051;-71
2021/08/21 06:01:19;;;;;;;7.85;5.07;;;;;;;;;;5109348;28;20031;-70
2021/08/21 06:05:48;;;;;;;8.32;4.40;;;;;;;;;;5111021;27;20473;-70
2021/08/21 06:08:14;;;;;;;7.25;4.03;;;;;;;;;;5127048;28;20549;-68
2021/08/21 06:10:43;;;;;;;6.93;3.95;;;;;;;;;;5111147;28;20106;-70
2021/08/21 06:13:09;;;;;;;10.07;4.40;;;;;;;;;;5110790;28;20096;-68
2021/08/21 06:17:51;;;;;;;10.00;6.60;;;;;;;;;;5111446;27;20412;-68
2021/08/21 06:20:17;;;;;;;8.13;4.50;;;;;;;;;;5126615;28;20028;-68
2021/08/21 06:23:27;;;;;;;7.68;4.60;;;;;;;;;;5111588;27;20388;-68
2021/08/21 06:25:53;;;;;;;9.02;4.70;;;;;;;;;;5110835;28;20402;-69
2021/08/21 06:28:19;;;;;;;7.65;4.40;;;;;;;;;;5111165;28;20028;-68
2021/08/21 06:30:46;;;;;;;9.20;5.32;;;;;;;;;;5111103;28;20031;-69
2021/08/21 06:33:12;;;;;;;12.65;5.50;;;;;;;;;;5110809;28;20067;-70
2021/08/21 06:35:38;;;;;;;7.97;4.85;;;;;;;;;;5111355;28;20020;-68
2021/08/21 06:38:04;;;;;;;7.80;4.57;;;;;;;;;;5109788;28;20361;-68
2021/08/21 06:40:30;;;;;;;6.63;4.13;;;;;;;;;;5110576;28;20016;-69
2021/08/21 06:42:57;;;;;;;7.82;4.38;;;;;;;;;;5110936;28;20062;-68
2021/08/21 06:46:21;;;;;;;6.35;3.55;;;;;;;;;;5111252;27;20397;-68
2021/08/21 06:48:47;;;;;;;9.77;4.78;;;;;;;;;;5111486;28;20028;-70
2021/08/21 06:51:14;;;;;;;8.93;4.13;;;;;;;;;;5109863;28;20365;-68
2021/08/21 06:53:40;;;;;;;8.55;4.05;;;;;;;;;;5109467;28;20027;-68
2021/08/21 06:56:06;;;;;;;8.38;4.05;;;;;;;;;;5111074;28;20480;-69
2021/08/21 06:58:33;;;;;;;7.22;3.85;;;;;;;;;;5111063;28;20055;-70
2021/08/21 07:00:59;;;;;;;7.57;3.67;;;;;;;;;;5110551;28;20027;-69
2021/08/21 07:03:26;;;;;;;10.43;4.10;;;;;;;;;;5111298;28;20031;-68
2021/08/21 07:05:52;;;;;;;14.15;3.83;;;;;;;;;;5110860;28;20500;-69
2021/08/21 07:08:18;;;;;;;8.00;3.80;;;;;;;;;;5110607;28;20031;-68
2021/08/21 07:10:45;;;;;;;7.43;3.75;;;;;;;;;;5110758;28;20031;-69
2021/08/21 07:13:11;;;;;;;7.68;3.70;;;;;;;;;;5110736;28;20024;-70
2021/08/21 07:15:37;;;;;;;6.00;3.10;;;;;;;;;;5110530;28;20043;-67
2021/08/21 07:18:03;;;;;;;6.50;3.60;;;;;;;;;;5110689;28;20020;-68
2021/08/21 07:21:57;;;;;;;6.55;3.47;;;;;;;;;;5111006;27;20321;-68
2021/08/21 07:24:24;;;;;;;6.80;4.03;;;;;;;;;;5111219;28;20050;-68
2021/08/21 07:26:50;;;;;;;8.20;3.50;;;;;;;;;;5111272;28;20383;-68
2021/08/21 07:29:17;;;;;;;8.90;3.95;;;;;;;;;;5111071;28;20024;-68
2021/08/21 07:32:42;;;;;;;7.65;3.60;;;;;;;;;;5070666;28;20395;-69
2021/08/21 07:36:28;;;;;;;9.45;3.60;;;;;;;;;;5070422;28;20425;-68
2021/08/21 07:38:55;;;;;;;7.50;3.42;;;;;;;;;;5069473;28;20033;-68
2021/08/21 07:41:21;;;;;;;5.45;2.95;;;;;;;;;;5069321;28;20028;-68
2021/08/21 07:43:47;;;;;;;6.60;3.88;;;;;;;;;;5070329;28;20056;-68
2021/08/21 07:46:14;;;;;;;8.45;3.28;;;;;;;;;;5070520;28;20021;-68
2021/08/21 07:48:40;;;;;;;8.15;3.67;;;;;;;;;;5070665;28;20028;-68
2021/08/21 07:51:06;;;;;;;11.43;3.35;;;;;;;;;;5070181;28;20025;-70
2021/08/21 07:53:32;;;;;;;6.18;3.08;;;;;;;;;;5070387;28;20071;-68
2021/08/21 07:55:58;;;;;;;7.10;3.05;;;;;;;;;;5068919;28;20531;-68
2021/08/21 07:58:25;;;;;;;6.45;2.50;;;;;;;;;;5069908;28;20035;-69
2021/08/21 08:00:51;;;;;;;11.43;3.85;;;;;;;;;;5070315;28;20051;-69
2021/08/21 08:03:17;;;;;;;6.93;3.03;;;;;;;;;;5070262;28;20017;-69
2021/08/21 08:05:44;;;;;;;7.95;2.70;;;;;;;;;;5068296;28;20033;-69
2021/08/21 08:08:10;;;;;;;13.25;2.47;;;;;;;;;;5070111;28;20031;-70
2021/08/21 08:10:36;;;;;;;5.22;2.47;;;;;;;;;;5069687;28;20024;-69
2021/08/21 08:17:16;;;;;;;9.93;3.88;;;;;;;;;;5111240;27;20392;-69
2021/08/21 08:19:42;;;;;;;10.88;3.90;;;;;;;;;;5111192;28;20379;-69
2021/08/21 08:22:08;;;;;;;9.77;3.45;;;;;;;;;;5111204;28;20101;-68
2021/08/21 08:24:34;;;;;;;8.15;3.97;;;;;;;;;;5110902;28;20027;-68
2021/08/21 08:27:01;;;;;;;9.30;3.40;;;;;;;;;;5110973;28;20048;-70
2021/08/21 08:31:44;;;;;;;7.85;3.60;;;;;;;;;;5111299;27;20757;-69
2021/08/21 08:34:11;;;;;;;9.60;4.25;;;;;;;;;;5111366;28;20024;-70
2021/08/21 08:36:37;;;;;;;6.80;2.95;;;;;;;;;;5111124;28;20444;-70
2021/08/21 08:39:03;;;;;;;7.78;3.17;;;;;;;;;;5110905;28;20023;-70
2021/08/21 08:42:15;;;;;;;6.50;3.35;;;;;;;;;;5111418;27;20388;-68
2021/08/21 08:44:48;;;;;;;7.28;3.30;;;;;;;;;;5111197;28;20103;-69
2021/08/21 08:47:15;;;;;;;8.95;3.78;;;;;;;;;;5109559;28;20089;-68
2021/08/21 08:49:41;;;;;;;6.75;3.35;;;;;;;;;;5111129;28;20541;-68
2021/08/21 08:53:16;;;;;;;8.82;3.67;;;;;;;;;;5111064;27;20389;-68
2021/08/21 08:55:43;;;;;;;7.82;4.22;;;;;;;;;;5111215;28;20034;-69
2021/08/21 08:59:48;;;;;;;6.70;3.28;;;;;;;;;;5070421;28;20851;-70
2021/08/21 09:02:35;;;;;;;7.68;3.75;;;;;;;;;;5111366;27;20517;-70
2021/08/21 09:06:11;;;;;;;8.55;4.03;;;;;;;;;;5111129;27;20416;-69
2021/08/21 09:11:21;;;;;;;8.90;4.18;;;;;;;;;;5111243;27;20501;-69
2021/08/21 09:14:52;;;;;;;10.18;3.80;;;;;;;;;;5131578;27;20319;-70
2021/08/21 09:17:37;;;;;;;6.93;3.78;;;;;;;;;;5070721;28;20950;-70
2021/08/21 09:20:06;;;;;;;8.82;3.50;;;;;;;;;;5070706;28;20025;-69
2021/08/21 09:22:32;;;;;;;6.97;3.67;;;;;;;;;;5052270;28;20109;-70
2021/08/21 09:24:58;;;;;;;8.57;4.25;;;;;;;;;;5070642;28;20465;-69
2021/08/21 09:27:25;;;;;;;10.13;4.30;;;;;;;;;;5070399;28;20032;-69
2021/08/21 09:30:27;;;;;;;8.68;4.82;;;;;;;;;;5070809;27;20391;-69
2021/08/21 09:33:01;;;;;;;10.48;5.28;;;;;;;;;;5070794;28;20025;-70
2021/08/21 09:35:46;;;;;;;15.65;6.85;;;;;;;;;;5111469;27;20497;-69
2021/08/21 09:38:13;;;;;;;7.18;3.85;;;;;;;;;;5111198;28;20131;-69
2021/08/21 09:40:40;;;;;;;8.20;4.63;;;;;;;;;;5111317;28;20377;-68
2021/08/21 09:44:49;;;;;;;7.55;4.05;;;;;;;;;;5070825;28;20387;-70
2021/08/21 09:48:18;;;;;;;7.85;3.65;;;;;;;;;;5111554;27;20445;-69
2021/08/21 09:50:44;;;;;;;6.78;3.75;;;;;;;;;;5110724;28;20032;-68
2021/08/21 09:53:11;;;;;;;11.23;4.47;;;;;;;;;;5111389;28;20028;-68
2021/08/21 09:55:38;;;;;;;10.10;4.53;;;;;;;;;;5111396;28;20059;-68
2021/08/21 09:58:15;;;;;;;7.57;4.07;;;;;;;;;;5110723;28;20047;-68
2021/08/21 10:00:43;;;;;;;10.45;5.38;;;;;;;;;;5109791;28;20026;-69
2021/08/21 10:03:09;;;;;;;8.40;4.43;;;;;;;;;;5110584;28;20070;-69
2021/08/21 10:06:48;;;;;;;9.38;6.88;;;;;;;;;;5111910;27;20473;-69
2021/08/21 10:09:18;;;;;;;11.38;6.15;;;;;;;;;;5111470;28;20396;-69
2021/08/21 10:12:06;;;;;;;9.15;4.30;;;;;;;;;;5070468;28;20472;-71
2021/08/21 10:14:33;;;;;;;7.80;4.22;;;;;;;;;;5070648;28;20036;-70
2021/08/21 10:17:00;;;;;;;8.63;3.95;;;;;;;;;;5069375;28;20454;-69
2021/08/21 10:20:18;;;;;;;9.45;4.32;;;;;;;;;;5111220;27;20389;-68
2021/08/21 10:22:45;;;;;;;9.25;4.55;;;;;;;;;;5111219;28;20027;-68
2021/08/21 10:25:12;;;;;;;7.82;4.70;;;;;;;;;;5110939;28;20069;-69
2021/08/21 10:27:40;;;;;;;11.13;4.82;;;;;;;;;;5111279;28;20383;-68
2021/08/21 10:31:48;;;;;;;11.43;5.68;;;;;;;;;;5070490;27;20400;-70
2021/08/21 10:36:59;;;;;;;9.82;5.10;;;;;;;;;;5111533;27;20505;-68
2021/08/21 10:39:27;;;;;;;14.27;5.88;;;;;;;;;;5110891;28;20016;-69
2021/08/21 10:41:54;;;;;;;14.68;5.47;;;;;;;;;;5111137;28;20499;-69
2021/08/21 10:47:36;;;;;;;11.18;4.85;;;;;;;;;;5110763;27;20384;-70
2021/08/21 10:50:22;;;;;;;11.48;4.95;;;;;;;;;;5110001;28;20042;-69
2021/08/21 10:55:22;;;;;;;10.40;5.28;;;;;;;;;;5131914;27;20331;-69
2021/08/21 10:57:54;;;;;;;9.88;5.20;;;;;;;;;;5111276;28;20538;-70
2021/08/21 11:01:03;;;;;;;8.40;4.57;;;;;;;;;;5110874;27;20396;-69
2021/08/21 11:03:29;;;;;;;10.05;4.25;;;;;;;;;;5111287;28;20046;-69
2021/08/21 11:05:58;;;;;;;10.85;4.15;;;;;;;;;;5111274;28;20024;-69
2021/08/21 11:08:36;;;;;;;9.80;4.22;;;;;;;;;;5110970;27;20411;-69
2021/08/21 11:11:18;;;;;;;8.35;3.42;;;;;;;;;;5126924;28;20036;-68
2021/08/21 11:16:48;;;;;;;7.70;4.45;;;;;;;;;;5111395;27;20418;-70
2021/08/21 11:19:23;;;;;;;10.13;4.72;;;;;;;;;;5127130;28;20024;-70
2021/08/21 11:25:28;;;;;;;6.97;4.63;;;;;;;;;;5131952;27;20436;-68
2021/08/21 11:28:02;;;;;;;7.30;3.72;;;;;;;;;;5147376;27;20032;-69
2021/08/21 11:32:05;;;;;;;9.63;4.80;;;;;;;;;;5070943;28;20458;-69
2021/08/21 11:34:38;;;;;;;8.57;4.45;;;;;;;;;;5070316;28;20464;-72
2021/08/21 11:37:07;;;;;;;6.82;4.05;;;;;;;;;;5070635;28;20545;-72
2021/08/21 11:41:13;;;;;;;6.80;4.15;;;;;;;;;;5111548;27;20520;-70
2021/08/21 11:46:37;;;;;;;10.30;4.88;;;;;;;;;;5050885;28;20380;-68
2021/08/21 11:49:07;;;;;;;7.43;4.25;;;;;;;;;;5050315;28;20030;-69
2021/08/21 11:51:38;;;;;;;9.07;3.63;;;;;;;;;;5050618;28;20029;-69
2021/08/21 11:55:17;;;;;;;6.95;4.15;;;;;;;;;;5111583;27;20492;-69
2021/08/21 11:57:44;;;;;;;7.10;3.85;;;;;;;;;;5110814;28;20053;-69
2021/08/21 12:00:11;;;;;;;7.57;4.47;;;;;;;;;;5111336;28;20023;-69
2021/08/21 12:02:48;;;;;;;6.90;4.13;;;;;;;;;;5111029;27;20389;-69
2021/08/21 12:05:15;;;;;;;8.45;4.75;;;;;;;;;;5111317;28;20024;-70
2021/08/21 12:07:41;;;;;;;7.72;4.20;;;;;;;;;;5111104;28;20024;-70
2021/08/21 12:11:34;;;;;;;6.70;3.95;;;;;;;;;;5110799;27;20474;-70
2021/08/21 12:14:01;;;;;;;6.82;4.22;;;;;;;;;;5111287;28;20034;-68
2021/08/21 12:16:29;;;;;;;10.02;5.03;;;;;;;;;;5111130;28;20030;-68
2021/08/21 12:19:31;;;;;;;8.10;4.30;;;;;;;;;;5111638;27;20406;-69
2021/08/21 12:21:58;;;;;;;6.15;3.67;;;;;;;;;;5127047;28;20039;-69
2021/08/21 12:24:24;;;;;;;6.43;3.67;;;;;;;;;;5110695;28;20030;-69
2021/08/21 12:27:22;;;;;;;7.00;3.80;;;;;;;;;;5131656;27;20812;-67
2021/08/21 12:32:41;;;;;;;8.32;3.72;;;;;;;;;;5110954;27;20389;-69
2021/08/21 12:35:08;;;;;;;6.10;3.50;;;;;;;;;;5109860;28;20439;-70
2021/08/21 12:37:34;;;;;;;6.63;3.30;;;;;;;;;;5111262;28;20467;-70
2021/08/21 12:40:12;;;;;;;7.93;4.47;;;;;;;;;;5110759;28;20039;-70
2021/08/21 12:42:39;;;;;;;12.95;5.82;;;;;;;;;;5110895;28;20020;-68
2021/08/21 12:45:17;;;;;;;9.63;4.50;;;;;;;;;;5110656;28;20028;-69
2021/08/21 12:48:42;;;;;;;8.65;3.85;;;;;;;;;;5111167;27;20405;-68
2021/08/21 12:51:08;;;;;;;5.93;3.38;;;;;;;;;;5109979;28;20062;-68
2021/08/21 12:53:34;;;;;;;9.02;4.30;;;;;;;;;;5110840;28;20027;-68
2021/08/21 12:58:03;;;;;;;8.02;3.47;;;;;;;;;;5111201;27;20489;-69
2021/08/21 13:00:29;;;;;;;8.25;4.18;;;;;;;;;;5110994;28;20032;-69
2021/08/21 13:02:56;;;;;;;11.60;5.55;;;;;;;;;;5092973;28;20392;-69
2021/08/21 13:05:29;;;;;;;8.50;4.60;;;;;;;;;;5109962;28;20095;-69
2021/08/21 13:08:03;;;;;;;10.48;4.20;;;;;;;;;;5110735;28;20024;-69
2021/08/21 13:10:31;;;;;;;8.93;4.45;;;;;;;;;;5109798;28;20020;-69
2021/08/21 13:12:57;;;;;;;6.85;3.75;;;;;;;;;;5110547;28;20563;-69
2021/08/21 13:16:51;;;;;;;13.50;7.15;;;;;;;;;;5111529;27;20397;-69
2021/08/21 13:19:18;;;;;;;9.20;4.88;;;;;;;;;;5109998;28;20031;-68
2021/08/21 13:21:44;;;;;;;11.15;4.28;;;;;;;;;;5110708;28;20028;-68
2021/08/21 13:24:10;;;;;;;7.63;4.43;;;;;;;;;;5111341;28;20475;-68
2021/08/21 13:26:36;;;;;;;7.55;3.78;;;;;;;;;;5111089;28;20065;-68
2021/08/21 13:29:03;;;;;;;9.18;4.07;;;;;;;;;;5110668;28;20031;-68
2021/08/21 13:32:18;;;;;;;10.13;6.60;;;;;;;;;;5111609;27;20434;-69
2021/08/21 13:34:44;;;;;;;10.25;5.78;;;;;;;;;;5110985;28;20527;-69
2021/08/21 13:37:10;;;;;;;9.10;4.78;;;;;;;;;;5109811;28;20024;-69
2021/08/21 13:39:37;;;;;;;9.63;4.50;;;;;;;;;;5111274;28;20132;-69
2021/08/21 13:42:04;;;;;;;8.15;3.90;;;;;;;;;;5110835;28;20019;-69
2021/08/21 13:44:30;;;;;;;5.88;3.40;;;;;;;;;;5111170;28;20336;-69
2021/08/21 13:46:56;;;;;;;6.70;3.78;;;;;;;;;;5110987;28;20024;-69
2021/08/21 13:49:23;;;;;;;6.57;3.50;;;;;;;;;;5110526;28;20524;-68
2021/08/21 13:51:49;;;;;;;7.20;3.85;;;;;;;;;;5111033;28;20123;-68
2021/08/21 13:54:15;;;;;;;7.15;3.20;;;;;;;;;;5109590;28;20020;-69
2021/08/21 13:56:41;;;;;;;6.25;3.67;;;;;;;;;;5110737;28;20032;-71
2021/08/21 14:00:20;;;;;;;7.72;4.20;;;;;;;;;;5111508;27;20393;-69
2021/08/21 14:04:55;;;;;;;8.38;3.70;;;;;;;;;;5111615;27;20524;-69
2021/08/21 14:07:21;;;;;;;7.00;3.72;;;;;;;;;;5111265;28;20026;-69
2021/08/21 14:11:59;;;;;;;6.50;3.25;;;;;;;;;;5111483;27;20389;-71
2021/08/21 14:14:25;;;;;;;6.32;3.10;;;;;;;;;;5111098;28;20484;-70
2021/08/21 14:16:51;;;;;;;7.82;4.28;;;;;;;;;;5110789;28;20016;-70
2021/08/21 14:19:53;;;;;;;8.57;4.20;;;;;;;;;;5111485;27;20404;-69
2021/08/21 14:22:19;;;;;;;5.35;3.22;;;;;;;;;;5111159;28;20472;-69
2021/08/21 14:24:45;;;;;;;6.55;3.42;;;;;;;;;;5110814;28;20107;-68
2021/08/21 14:27:11;;;;;;;6.53;3.78;;;;;;;;;;5111225;28;20491;-69
2021/08/21 14:30:12;;;;;;;7.20;4.25;;;;;;;;;;5111212;27;20762;-68
2021/08/21 14:32:38;;;;;;;7.38;4.57;;;;;;;;;;5111628;28;20048;-68
2021/08/21 14:35:05;;;;;;;6.30;3.95;;;;;;;;;;5111318;28;20069;-69
2021/08/21 14:37:32;;;;;;;7.05;3.28;;;;;;;;;;5109567;28;20107;-71
2021/08/21 14:40:18;;;;;;;7.15;3.70;;;;;;;;;;5111356;27;20459;-70
2021/08/21 14:42:45;;;;;;;8.43;4.43;;;;;;;;;;5111237;28;20541;-69
2021/08/21 14:45:11;;;;;;;6.50;3.30;;;;;;;;;;5110876;28;20031;-71
2021/08/21 14:47:37;;;;;;;4.82;3.03;;;;;;;;;;5111015;28;20047;-71
2021/08/21 14:50:03;;;;;;;4.65;2.70;;;;;;;;;;5111217;28;20030;-69
2021/08/21 14:52:30;;;;;;;6.10;2.95;;;;;;;;;;5110732;28;20031;-70
2021/08/21 14:54:56;;;;;;;7.43;3.92;;;;;;;;;;5111096;28;20024;-69
2021/08/21 14:57:22;;;;;;;8.27;3.80;;;;;;;;;;5109587;28;20089;-70
2021/08/21 14:59:48;;;;;;;10.13;5.35;;;;;;;;;;5110462;28;20051;-68
2021/08/21 15:02:14;;;;;;;7.60;3.88;;;;;;;;;;5110812;28;20039;-68
2021/08/21 15:04:40;;;;;;;6.53;3.40;;;;;;;;;;5109584;28;20388;-69
2021/08/21 15:07:07;;;;;;;5.72;3.08;;;;;;;;;;5110253;28;20016;-68
2021/08/21 15:09:33;;;;;;;6.60;3.00;;;;;;;;;;5110707;28;20031;-68
2021/08/21 15:12:44;;;;;;;5.80;3.20;;;;;;;;;;5111077;27;20310;-70
2021/08/21 15:15:10;;;;;;;5.05;2.97;;;;;;;;;;5111136;28;20024;-68
2021/08/21 15:17:37;;;;;;;10.40;3.70;;;;;;;;;;5109923;28;20020;-68
2021/08/21 15:20:04;;;;;;;6.85;3.03;;;;;;;;;;5110782;28;20383;-70
2021/08/21 15:22:30;;;;;;;7.35;4.50;;;;;;;;;;5111073;28;20027;-71
2021/08/21 15:24:56;;;;;;;8.65;3.95;;;;;;;;;;5109704;28;20066;-70
2021/08/21 15:27:23;;;;;;;8.70;3.55;;;;;;;;;;5110645;28;20019;-72
2021/08/21 15:29:49;;;;;;;6.82;3.33;;;;;;;;;;5110950;28;20084;-70
2021/08/21 15:32:16;;;;;;;8.05;4.38;;;;;;;;;;5110914;28;20043;-69
2021/08/21 15:34:42;;;;;;;6.88;3.83;;;;;;;;;;5110504;28;20073;-70
2021/08/21 15:37:09;;;;;;;7.85;3.30;;;;;;;;;;5110921;28;20111;-71
2021/08/21 15:39:36;;;;;;;5.70;3.50;;;;;;;;;;5110838;28;20027;-71
2021/08/21 15:42:03;;;;;;;8.82;3.70;;;;;;;;;;5110334;28;20031;-68
2021/08/21 15:44:42;;;;;;;8.85;3.33;;;;;;;;;;5110591;28;20051;-70
2021/08/21 15:48:08;;;;;;;6.50;3.50;;;;;;;;;;5070297;28;20387;-69
2021/08/21 15:50:34;;;;;;;6.68;3.85;;;;;;;;;;5071053;28;20020;-70
2021/08/21 15:53:01;;;;;;;9.88;3.03;;;;;;;;;;5070593;28;20024;-69
2021/08/21 15:55:28;;;;;;;10.80;4.78;;;;;;;;;;5070255;28;20021;-70
2021/08/21 15:57:56;;;;;;;7.07;3.50;;;;;;;;;;5070428;28;20507;-69
2021/08/21 16:02:25;;;;;;;10.90;4.18;;;;;;;;;;5111183;27;20389;-70
2021/08/21 16:05:36;;;;;;;10.30;3.55;;;;;;;;;;5111157;27;20121;-69
2021/08/21 16:09:56;;;;;;;6.40;3.35;;;;;;;;;;5070517;28;20395;-70
2021/08/21 16:12:22;;;;;;;6.47;3.63;;;;;;;;;;5069451;28;20025;-68
2021/08/21 16:14:48;;;;;;;8.95;4.35;;;;;;;;;;5069275;28;20127;-69
2021/08/21 16:17:14;;;;;;;7.78;4.10;;;;;;;;;;5069007;28;20020;-68
2021/08/21 16:19:40;;;;;;;10.55;4.80;;;;;;;;;;5070435;28;20031;-70
2021/08/21 16:22:06;;;;;;;9.10;5.78;;;;;;;;;;5069219;28;20028;-68
2021/08/21 16:24:33;;;;;;;9.55;4.93;;;;;;;;;;5070076;28;20036;-69
2021/08/21 16:26:59;;;;;;;12.65;4.60;;;;;;;;;;5070438;28;20021;-68
2021/08/21 16:29:25;;;;;;;7.15;4.32;;;;;;;;;;5070109;28;20036;-68
2021/08/21 16:31:51;;;;;;;6.63;4.07;;;;;;;;;;5069952;28;20020;-68
2021/08/21 16:34:17;;;;;;;7.80;4.50;;;;;;;;;;5068950;28;20397;-69
2021/08/21 16:37:23;;;;;;;10.90;4.65;;;;;;;;;;5110998;27;20536;-68
2021/08/21 16:41:55;;;;;;;7.70;4.30;;;;;;;;;;5070658;28;20410;-70
2021/08/21 16:45:15;;;;;;;7.43;3.90;;;;;;;;;;5070584;27;20484;-70
2021/08/21 16:49:18;;;;;;;8.55;4.68;;;;;;;;;;5070881;28;20433;-68
2021/08/21 16:53:50;;;;;;;8.20;4.43;;;;;;;;;;5131841;27;20315;-69
2021/08/21 16:56:17;;;;;;;7.95;4.15;;;;;;;;;;5111236;28;20392;-69
2021/08/21 16:58:43;;;;;;;7.72;4.13;;;;;;;;;;5092427;28;20042;-70
2021/08/21 17:01:09;;;;;;;8.48;4.95;;;;;;;;;;5111387;28;20035;-70
2021/08/21 17:04:05;;;;;;;9.38;5.25;;;;;;;;;;5111373;27;20381;-69
2021/08/21 17:06:31;;;;;;;10.48;5.53;;;;;;;;;;5110805;28;20034;-69
2021/08/21 17:08:57;;;;;;;8.95;5.22;;;;;;;;;;5111414;28;20023;-69
2021/08/21 17:11:23;;;;;;;10.45;5.07;;;;;;;;;;5111330;28;20028;-69